ΕΜΥ, Εθνική Μετεωρολογική Υπηρεσία - Δελτία Καιρού, Προγνώσεις

ΑΕΡΟΝΑΥΤΙΛΙΑ

GREEK AIRPORTS CODES

LGSY 212120Z AUTO 01017KT //// // ////// 20/12 Q1021 RE//=

EUROPEAN AIRPORTS CODES

LFPO 212130Z 19004KT CAVOK 15/12 Q1010 NOSIG=